Time;durP1;ratioP1;P1;durP2;ratioP2;P2;SDS_P1;SDS_P2;PMS_P1;PMS_P2;Temp;Humidity;BMP_temperature;BMP_pressure;BME280_temperature;BME280_humidity;BME280_pressure;Samples;Min_cycle;Max_cycle;Signal;HPM_P1;HPM_P2
2023/12/05 00:00:34;;;;;;;22.55;10.55;;;;;;;-1.31;73.22;99279.50;4506090;31;34331;-89
2023/12/05 00:03:02;;;;;;;28.15;13.68;;;;;;;-1.36;73.18;99290.22;4500695;31;33982;-86
2023/12/05 00:05:29;;;;;;;31.27;14.57;;;;;;;-1.34;73.21;99283.53;4500466;31;34013;-86
2023/12/05 00:07:57;;;;;;;36.45;18.27;;;;;;;-1.44;73.10;99291.38;4500961;31;33051;-86
2023/12/05 00:10:25;;;;;;;48.95;36.58;;;;;;;-1.30;73.22;99280.38;4504039;31;34199;-87
2023/12/05 00:12:53;;;;;;;49.40;37.53;;;;;;;-1.30;72.98;99291.44;4511217;31;34691;-86
2023/12/05 00:15:20;;;;;;;29.02;12.98;;;;;;;-1.45;73.55;99282.88;4501488;31;33876;-87
2023/12/05 00:17:48;;;;;;;48.47;36.70;;;;;;;-1.32;73.11;99281.97;4507551;31;34266;-87
2023/12/05 00:20:15;;;;;;;29.73;13.73;;;;;;;-1.09;72.53;99279.16;4507194;31;34293;-88
2023/12/05 00:22:43;;;;;;;24.87;11.77;;;;;;;-0.69;71.24;99281.50;4506954;31;34052;-87
2023/12/05 00:25:12;;;;;;;23.83;11.98;;;;;;;-1.10;71.70;99281.59;4504054;31;33717;-86
2023/12/05 00:27:40;;;;;;;47.25;36.60;;;;;;;-0.99;71.61;99266.19;4502287;31;33573;-86
2023/12/05 00:30:08;;;;;;;25.52;14.68;;;;;;;-0.88;71.18;99278.66;4493200;31;33769;-86
2023/12/05 00:32:36;;;;;;;44.67;34.80;;;;;;;-1.11;71.99;99273.09;4498574;31;33989;-86
2023/12/05 00:35:03;;;;;;;25.65;10.82;;;;;;;-1.17;71.82;99277.81;4490505;31;33813;-86
2023/12/05 00:37:31;;;;;;;45.78;34.40;;;;;;;-0.94;71.06;99281.75;4489102;31;32688;-87
2023/12/05 00:39:58;;;;;;;44.60;35.08;;;;;;;-1.25;71.88;99266.28;4503101;31;33458;-86
2023/12/05 00:42:26;;;;;;;21.65;10.68;;;;;;;-0.89;71.00;99274.38;4508047;31;34107;-86
2023/12/05 00:44:53;;;;;;;31.05;14.32;;;;;;;-0.95;71.35;99274.00;4505639;31;33813;-87
2023/12/05 00:47:21;;;;;;;48.67;35.50;;;;;;;-0.66;70.34;99263.00;4504870;31;33509;-85
2023/12/05 00:49:49;;;;;;;44.17;34.53;;;;;;;-0.99;70.97;99276.34;4506248;31;33318;-84
2023/12/05 00:52:16;;;;;;;26.40;11.85;;;;;;;-0.73;70.41;99272.81;4499972;31;34535;-85
2023/12/05 00:54:44;;;;;;;26.30;13.30;;;;;;;-0.83;70.66;99272.22;4499758;31;33744;-86
2023/12/05 00:57:11;;;;;;;42.50;34.15;;;;;;;-0.70;70.21;99279.75;4502989;31;33078;-85
2023/12/05 00:59:39;;;;;;;43.35;33.50;;;;;;;-1.01;70.76;99282.16;4502170;31;33875;-85
2023/12/05 01:02:09;;;;;;;42.88;32.53;;;;;;;-1.09;70.86;99275.75;4501833;31;32489;-86
2023/12/05 01:04:37;;;;;;;25.17;11.48;;;;;;;-0.79;69.96;99264.84;4500823;31;34698;-85
2023/12/05 01:07:05;;;;;;;26.23;12.05;;;;;;;-1.14;71.23;99280.53;4486034;31;33245;-85
2023/12/05 01:09:32;;;;;;;19.58;11.43;;;;;;;-1.07;71.12;99269.94;4500824;31;35798;-85
2023/12/05 01:12:00;;;;;;;30.00;16.15;;;;;;;-1.01;71.14;99270.31;4501675;31;33982;-86
2023/12/05 01:14:27;;;;;;;44.28;32.85;;;;;;;-0.95;70.92;99266.38;4504149;31;33668;-86
2023/12/05 01:16:56;;;;;;;31.60;14.77;;;;;;;-1.06;71.05;99263.16;4510872;31;33061;-87
2023/12/05 01:19:24;;;;;;;40.08;32.13;;;;;;;-0.89;70.55;99270.16;4509470;31;34634;-85
2023/12/05 01:21:52;;;;;;;42.58;32.80;;;;;;;-1.04;70.76;99262.50;4504233;31;33441;-85
2023/12/05 01:24:21;;;;;;;27.37;11.73;;;;;;;-0.85;70.59;99251.72;4507076;31;32369;-86
2023/12/05 01:26:49;;;;;;;43.90;33.05;;;;;;;-1.46;72.63;99258.22;4501899;31;33205;-86
2023/12/05 01:29:16;;;;;;;27.48;11.88;;;;;;;-1.58;73.33;99238.03;4503569;31;33113;-86
2023/12/05 01:31:44;;;;;;;18.73;9.52;;;;;;;-1.61;73.37;99225.13;4484877;31;33940;-84
2023/12/05 01:34:11;;;;;;;17.25;8.52;;;;;;;-1.70;74.00;99206.78;4490954;31;33732;-85
2023/12/05 01:36:39;;;;;;;22.62;10.60;;;;;;;-1.84;74.76;99208.47;4501384;31;33192;-85
2023/12/05 01:39:06;;;;;;;45.00;33.83;;;;;;;-1.76;74.96;99197.09;4507135;31;34018;-85
2023/12/05 01:41:34;;;;;;;24.63;11.45;;;;;;;-1.61;74.28;99188.66;4506193;31;34062;-86
2023/12/05 01:44:01;;;;;;;23.05;10.23;;;;;;;-1.59;74.36;99198.16;4506997;31;34072;-85
2023/12/05 01:46:30;;;;;;;19.50;10.90;;;;;;;-1.86;75.24;99201.50;4505218;31;33615;-84
2023/12/05 01:48:58;;;;;;;44.97;34.50;;;;;;;-1.70;74.25;99194.06;4512913;31;33882;-86
2023/12/05 01:51:27;;;;;;;19.25;10.43;;;;;;;-1.57;74.07;99206.72;4490300;31;34938;-86
2023/12/05 01:53:55;;;;;;;22.73;12.13;;;;;;;-1.46;73.82;99189.59;4493617;31;33571;-86
2023/12/05 01:56:22;;;;;;;30.73;12.88;;;;;;;-1.77;74.73;99190.25;4502817;31;33168;-86
2023/12/05 01:58:50;;;;;;;29.27;10.75;;;;;;;-1.48;74.08;99188.59;4490877;31;33901;-85
2023/12/05 02:01:19;;;;;;;43.92;32.28;;;;;;;-1.45;73.64;99188.78;4489275;31;33300;-85
2023/12/05 02:03:49;;;;;;;21.02;11.70;;;;;;;-1.65;74.86;99187.59;4495195;31;33835;-87
2023/12/05 02:06:21;;;;;;;41.45;32.97;;;;;;;-1.54;74.51;99184.03;4500301;31;33227;-87
2023/12/05 02:08:50;;;;;;;45.88;34.05;;;;;;;-1.68;75.42;99182.31;4496387;31;33804;-86
2023/12/05 02:11:17;;;;;;;24.23;12.15;;;;;;;-1.73;75.96;99179.50;4506074;31;34706;-86
2023/12/05 02:13:46;;;;;;;26.45;11.77;;;;;;;-1.23;74.41;99168.06;4505336;31;33797;-86
2023/12/05 02:16:30;;;;;;;46.88;34.88;;;;;;;-1.17;73.78;99167.56;4496518;31;33490;-85
2023/12/05 02:19:08;;;;;;;29.35;13.13;;;;;;;-1.28;74.36;99161.84;4492438;31;34475;-86
2023/12/05 02:21:39;;;;;;;29.45;14.00;;;;;;;-1.23;73.86;99155.34;4495173;31;35079;-85
2023/12/05 02:24:25;;;;;;;31.37;13.30;;;;;;;-1.61;74.92;99156.50;4493917;31;33476;-85
2023/12/05 02:27:20;;;;;;;21.10;10.95;;;;;;;-1.16;74.14;99151.50;4508527;31;34301;-85
2023/12/05 02:29:49;;;;;;;43.85;32.90;;;;;;;-1.29;74.22;99145.69;4466162;31;33725;-85
2023/12/05 02:32:17;;;;;;;42.47;32.08;;;;;;;-1.43;74.05;99131.28;4503089;31;34035;-85
2023/12/05 02:34:45;;;;;;;32.67;13.85;;;;;;;-1.24;73.71;99138.34;4493873;31;33815;-86
2023/12/05 02:37:29;;;;;;;26.00;12.95;;;;;;;-1.26;74.08;99130.59;4496679;31;33374;-86
2023/12/05 02:40:14;;;;;;;17.60;8.75;;;;;;;-1.34;74.02;99134.38;4510240;31;33691;-85
2023/12/05 02:42:43;;;;;;;43.03;33.55;;;;;;;-1.14;73.36;99143.16;4511606;31;34125;-86
2023/12/05 02:45:16;;;;;;;43.33;33.28;;;;;;;-1.29;74.01;99130.44;4499554;31;34438;-87
2023/12/05 02:47:48;;;;;;;21.33;9.73;;;;;;;-1.41;74.38;99133.91;4513234;31;32952;-86
2023/12/05 02:50:19;;;;;;;20.75;11.80;;;;;;;-1.45;74.19;99122.69;4489965;31;33977;-87
2023/12/05 02:52:47;;;;;;;45.20;33.97;;;;;;;-1.53;75.02;99132.41;4490354;31;34049;-86
2023/12/05 02:55:14;;;;;;;25.83;12.45;;;;;;;-1.50;75.00;99135.13;4494835;31;32174;-85
2023/12/05 02:57:42;;;;;;;25.23;11.30;;;;;;;-1.22;74.24;99129.12;4497158;31;33416;-85
2023/12/05 03:00:11;;;;;;;27.08;13.88;;;;;;;-0.72;72.56;99131.13;4488575;31;33897;-86
2023/12/05 03:02:38;;;;;;;45.33;33.47;;;;;;;-1.04;73.80;99121.69;4497026;31;34107;-84
2023/12/05 03:05:07;;;;;;;27.90;11.85;;;;;;;-1.18;73.61;99120.88;4487455;31;33513;-85
2023/12/05 03:07:34;;;;;;;22.75;12.85;;;;;;;-1.43;75.17;99117.69;4493919;31;33273;-86
2023/12/05 03:10:03;;;;;;;27.55;13.55;;;;;;;-1.17;74.42;99115.00;4491465;31;33731;-85
2023/12/05 03:12:33;;;;;;;24.98;12.37;;;;;;;-1.27;74.73;99113.59;4487013;31;34537;-85
2023/12/05 03:15:00;;;;;;;45.00;33.70;;;;;;;-1.59;75.88;99113.34;4498663;31;33589;-86
2023/12/05 03:17:28;;;;;;;26.05;11.25;;;;;;;-1.55;75.91;99111.09;4493917;31;33622;-85
2023/12/05 03:19:56;;;;;;;44.95;34.42;;;;;;;-1.39;75.18;99112.88;4485739;31;34471;-85
2023/12/05 03:22:23;;;;;;;20.17;10.27;;;;;;;-1.56;75.87;99103.38;4489628;31;34020;-85
2023/12/05 03:24:51;;;;;;;22.70;14.50;;;;;;;-1.48;75.58;99105.59;4494526;31;33829;-86
2023/12/05 03:27:19;;;;;;;46.00;35.42;;;;;;;-1.34;75.58;99098.75;4489210;31;33785;-85
2023/12/05 03:29:46;;;;;;;23.00;12.77;;;;;;;-1.44;75.86;99098.12;4487764;31;34607;-86
2023/12/05 03:32:13;;;;;;;27.08;10.35;;;;;;;-1.38;75.60;99103.59;4484901;31;33853;-87
2023/12/05 03:34:41;;;;;;;47.60;36.50;;;;;;;-1.27;75.30;99100.00;4485098;31;33254;-86
2023/12/05 03:37:09;;;;;;;17.45;10.32;;;;;;;-1.24;74.92;99093.44;4489386;31;31215;-85
2023/12/05 03:39:36;;;;;;;17.77;10.82;;;;;;;-1.29;75.05;99086.31;4494376;31;34706;-86
2023/12/05 03:42:04;;;;;;;45.22;35.67;;;;;;;-1.37;75.52;99085.00;4490344;31;33565;-85
2023/12/05 03:44:32;;;;;;;29.48;13.68;;;;;;;-1.52;75.86;99077.34;4489256;31;34572;-85
2023/12/05 03:46:59;;;;;;;22.90;12.05;;;;;;;-0.81;73.79;99079.72;4493767;31;34381;-84
2023/12/05 03:49:27;;;;;;;47.95;35.25;;;;;;;-0.86;73.81;99086.22;4501050;31;33441;-85
2023/12/05 03:51:54;;;;;;;24.65;12.68;;;;;;;-0.65;73.20;99087.41;4506586;31;35234;-87
2023/12/05 03:54:23;;;;;;;25.65;10.95;;;;;;;-1.22;74.88;99086.75;4512838;31;34565;-85
2023/12/05 03:56:51;;;;;;;45.35;35.03;;;;;;;-1.09;74.35;99082.38;4507042;31;32091;-86
2023/12/05 03:59:18;;;;;;;45.25;34.50;;;;;;;-0.92;74.08;99073.16;4501907;31;34590;-86
2023/12/05 04:01:46;;;;;;;27.33;14.32;;;;;;;-1.12;74.53;99078.00;4509971;31;35442;-86
2023/12/05 04:04:14;;;;;;;48.53;36.00;;;;;;;-0.98;74.30;99066.06;4509322;31;32343;-86
2023/12/05 04:06:41;;;;;;;47.25;36.30;;;;;;;-1.05;74.61;99062.28;4509021;31;34366;-85
2023/12/05 04:09:09;;;;;;;47.88;37.50;;;;;;;-1.07;74.41;99062.97;4499135;31;33324;-86
2023/12/05 04:11:38;;;;;;;28.15;12.63;;;;;;;-1.37;75.59;99064.66;4502138;31;35182;-87
2023/12/05 04:14:05;;;;;;;46.17;36.17;;;;;;;-1.19;74.96;99065.69;4502112;31;33684;-87
2023/12/05 04:16:32;;;;;;;33.85;13.50;;;;;;;-1.08;74.62;99074.81;4506333;31;33675;-86
2023/12/05 04:19:00;;;;;;;28.02;16.50;;;;;;;-1.24;75.24;99062.03;4514172;31;33977;-86
2023/12/05 04:21:27;;;;;;;47.97;37.28;;;;;;;-1.06;74.59;99064.72;4510145;31;34642;-86
2023/12/05 04:23:55;;;;;;;32.70;14.50;;;;;;;-1.11;75.04;99063.59;4508144;31;34611;-85
2023/12/05 04:26:23;;;;;;;51.03;36.95;;;;;;;-0.99;74.58;99065.16;4509431;31;33356;-86
2023/12/05 04:28:54;;;;;;;51.90;40.25;;;;;;;-0.98;74.48;99066.94;4511741;31;33185;-86
2023/12/05 04:31:24;;;;;;;51.97;38.70;;;;;;;-0.93;74.29;99066.31;4495597;31;34129;-86
2023/12/05 04:33:53;;;;;;;35.60;16.42;;;;;;;-1.03;74.68;99063.22;4493006;31;33604;-87
2023/12/05 04:36:24;;;;;;;55.28;41.37;;;;;;;-0.85;74.16;99067.59;4496444;31;35558;-86
2023/12/05 04:38:51;;;;;;;24.52;14.02;;;;;;;-0.67;73.43;99071.19;4501174;31;33201;-86
2023/12/05 04:41:19;;;;;;;51.33;38.90;;;;;;;-0.82;73.87;99075.44;4506624;31;33799;-85
2023/12/05 04:43:47;;;;;;;27.02;14.63;;;;;;;-0.76;73.83;99073.19;4507055;31;31596;-85
2023/12/05 04:46:14;;;;;;;50.33;39.50;;;;;;;-0.89;74.55;99070.78;4512544;31;33380;-86
2023/12/05 04:48:42;;;;;;;28.98;14.93;;;;;;;-0.77;73.79;99068.91;4506449;31;34456;-85
2023/12/05 04:51:10;;;;;;;34.22;15.95;;;;;;;-0.66;73.24;99065.28;4502484;31;34014;-85
2023/12/05 04:53:40;;;;;;;26.05;13.15;;;;;;;-0.96;73.95;99061.03;4507261;31;33602;-84
2023/12/05 04:56:08;;;;;;;49.25;38.38;;;;;;;-1.06;74.62;99068.16;4494660;31;33519;-85
2023/12/05 04:58:35;;;;;;;30.95;15.38;;;;;;;-0.93;74.61;99061.22;4502861;31;33863;-86
2023/12/05 05:01:03;;;;;;;50.80;38.97;;;;;;;-0.46;73.17;99055.31;4505728;31;34099;-85
2023/12/05 05:03:30;;;;;;;29.00;15.00;;;;;;;-0.67;73.45;99067.75;4508886;31;34991;-86
2023/12/05 05:05:58;;;;;;;50.50;38.40;;;;;;;-1.10;75.23;99063.69;4512789;31;33473;-85
2023/12/05 05:08:25;;;;;;;53.78;40.12;;;;;;;-1.08;75.05;99068.88;4510618;31;34613;-86
2023/12/05 05:10:53;;;;;;;35.38;15.52;;;;;;;-1.29;75.84;99069.41;4502962;31;34150;-86
2023/12/05 05:13:21;;;;;;;51.20;37.40;;;;;;;-0.67;74.27;99073.72;4506993;31;33516;-87
2023/12/05 05:15:48;;;;;;;25.75;12.60;;;;;;;-0.76;73.88;99069.00;4503230;31;33911;-85
2023/12/05 05:18:16;;;;;;;51.03;39.88;;;;;;;-0.58;73.54;99058.94;4509715;31;33653;-87
2023/12/05 05:20:44;;;;;;;29.55;13.55;;;;;;;-0.59;73.32;99061.41;4511244;31;34042;-83
2023/12/05 05:23:11;;;;;;;20.58;12.02;;;;;;;-0.71;73.94;99070.94;4504511;31;32491;-87
2023/12/05 05:25:39;;;;;;;25.10;12.70;;;;;;;-1.03;74.94;99065.78;4505137;31;34388;-86
2023/12/05 05:28:09;;;;;;;35.70;18.20;;;;;;;-0.99;75.04;99070.25;4507968;31;35595;-86
2023/12/05 05:30:36;;;;;;;25.85;14.25;;;;;;;-0.64;74.47;99066.28;4496556;31;33825;-85
2023/12/05 05:33:04;;;;;;;30.15;14.57;;;;;;;-0.76;74.34;99068.09;4503118;31;33465;-83
2023/12/05 05:35:32;;;;;;;53.28;39.50;;;;;;;-0.59;73.85;99064.84;4500537;31;34025;-85
2023/12/05 05:38:00;;;;;;;39.58;19.75;;;;;;;-0.68;73.91;99073.63;4505882;31;33588;-85
2023/12/05 05:40:28;;;;;;;27.95;14.18;;;;;;;-0.66;74.15;99065.28;4505376;31;34096;-85
2023/12/05 05:42:55;;;;;;;56.17;41.22;;;;;;;-0.86;74.49;99065.88;4488118;31;33936;-86
2023/12/05 05:45:23;;;;;;;39.35;17.77;;;;;;;-0.87;74.74;99064.09;4492214;31;33437;-84
2023/12/05 05:47:50;;;;;;;55.53;41.08;;;;;;;-0.62;74.01;99074.84;4502217;31;34136;-84
2023/12/05 05:50:18;;;;;;;54.15;41.85;;;;;;;-0.90;74.83;99077.53;4506642;31;33693;-85
2023/12/05 05:52:47;;;;;;;54.15;41.92;;;;;;;-0.62;73.63;99072.31;4501686;31;33698;-85
2023/12/05 05:55:15;;;;;;;32.88;15.13;;;;;;;-0.59;73.76;99074.16;4502663;31;33739;-84
2023/12/05 05:57:42;;;;;;;34.78;15.85;;;;;;;-0.39;73.27;99059.94;4499564;31;34422;-84
2023/12/05 06:00:11;;;;;;;32.00;16.85;;;;;;;-0.81;74.54;99072.94;4502292;31;34628;-85
2023/12/05 06:02:39;;;;;;;53.95;41.55;;;;;;;-0.51;73.92;99073.75;4502799;31;33917;-86
2023/12/05 06:05:07;;;;;;;31.83;16.50;;;;;;;-0.68;74.17;99071.06;4487116;31;33988;-84
2023/12/05 06:07:36;;;;;;;57.17;44.38;;;;;;;-0.48;73.79;99069.66;4500933;31;33568;-85
2023/12/05 06:10:03;;;;;;;55.92;42.25;;;;;;;-0.73;74.53;99064.06;4496324;31;34107;-85
2023/12/05 06:12:32;;;;;;;38.85;17.95;;;;;;;-0.41;73.37;99061.56;4506213;31;34272;-84
2023/12/05 06:14:59;;;;;;;36.35;18.27;;;;;;;-0.55;73.64;99058.25;4503070;31;33176;-85
2023/12/05 06:17:27;;;;;;;78.78;56.88;;;;;;;-0.36;72.81;99062.66;4504497;31;34732;-83
2023/12/05 06:19:55;;;;;;;76.93;57.17;;;;;;;-0.70;74.67;99073.56;4500198;31;33890;-85
2023/12/05 06:22:23;;;;;;;26.80;13.73;;;;;;;-0.86;75.24;99070.97;4504391;31;34664;-85
2023/12/05 06:24:51;;;;;;;87.70;65.32;;;;;;;-0.99;75.32;99080.41;4503151;31;34541;-84
2023/12/05 06:27:18;;;;;;;60.53;26.90;;;;;;;-1.07;76.04;99081.66;4508445;31;33655;-84
2023/12/05 06:29:46;;;;;;;67.07;50.20;;;;;;;-0.70;74.74;99073.56;4484131;31;33085;-85
2023/12/05 06:32:14;;;;;;;76.60;31.73;;;;;;;-0.58;74.26;99079.31;4504991;31;34840;-86
2023/12/05 06:34:42;;;;;;;67.78;51.78;;;;;;;-0.66;74.70;99079.69;4505532;31;33581;-85
2023/12/05 06:37:09;;;;;;;35.50;18.23;;;;;;;-0.74;74.91;99071.63;4497826;31;33512;-85
2023/12/05 06:39:37;;;;;;;65.90;49.20;;;;;;;-0.64;74.72;99071.34;4506110;31;34147;-86
2023/12/05 06:42:04;;;;;;;35.78;19.05;;;;;;;-0.50;74.61;99062.78;4502940;31;34769;-86
2023/12/05 06:44:32;;;;;;;65.75;48.10;;;;;;;-0.52;74.29;99064.37;4505142;31;33555;-86
2023/12/05 06:47:00;;;;;;;31.17;16.65;;;;;;;-0.58;74.66;99063.16;4511079;31;33850;-84
2023/12/05 06:49:27;;;;;;;38.05;19.15;;;;;;;-0.46;74.08;99057.84;4506536;31;33900;-86
2023/12/05 06:52:00;;;;;;;57.65;44.25;;;;;;;-0.44;74.27;99062.25;4508702;31;33965;-85
2023/12/05 06:54:27;;;;;;;32.15;14.65;;;;;;;-0.55;74.22;99059.12;4501137;31;34225;-85
2023/12/05 06:56:55;;;;;;;57.25;45.35;;;;;;;-0.46;74.17;99058.72;4510456;31;33531;-85
2023/12/05 06:59:23;;;;;;;24.30;13.07;;;;;;;-0.12;73.05;99063.09;4514774;31;33671;-86
2023/12/05 07:01:51;;;;;;;57.58;43.83;;;;;;;-0.34;73.52;99068.69;4498762;31;34572;-85
2023/12/05 07:04:19;;;;;;;68.03;49.83;;;;;;;-0.19;73.33;99066.09;4499422;31;34512;-85
2023/12/05 07:06:46;;;;;;;40.47;21.25;;;;;;;0.02;72.63;99080.00;4508947;31;33875;-86
2023/12/05 07:09:14;;;;;;;63.17;45.12;;;;;;;-0.14;72.50;99080.84;4511118;31;34928;-85
2023/12/05 07:11:42;;;;;;;36.90;19.37;;;;;;;-0.37;73.47;99078.75;4506214;31;34570;-86
2023/12/05 07:14:09;;;;;;;40.12;18.37;;;;;;;0.22;71.55;99081.03;4499306;31;33531;-86
2023/12/05 07:16:38;;;;;;;51.90;22.83;;;;;;;0.15;71.73;99076.41;4508658;31;33993;-86
2023/12/05 07:19:05;;;;;;;61.80;47.78;;;;;;;-0.08;72.66;99088.81;4510080;31;33778;-86
2023/12/05 07:21:33;;;;;;;50.05;22.77;;;;;;;-0.08;72.83;99087.94;4510937;31;33449;-86
2023/12/05 07:24:01;;;;;;;37.97;19.95;;;;;;;0.13;72.12;99091.63;4512234;31;34175;-86
2023/12/05 07:26:28;;;;;;;56.83;43.33;;;;;;;0.05;72.37;99085.25;4507156;31;34503;-86
2023/12/05 07:28:55;;;;;;;60.75;46.30;;;;;;;0.55;70.41;99088.66;4495767;31;34217;-85
2023/12/05 07:31:24;;;;;;;31.42;17.40;;;;;;;0.19;71.71;99088.50;4503909;31;34560;-86
2023/12/05 07:33:51;;;;;;;37.33;17.98;;;;;;;0.49;70.98;99086.66;4508065;31;34670;-86
2023/12/05 07:36:19;;;;;;;59.80;47.25;;;;;;;0.36;71.21;99090.28;4504594;31;33776;-85
2023/12/05 07:38:46;;;;;;;56.78;44.03;;;;;;;0.31;71.09;99098.50;4504619;31;34171;-85
2023/12/05 07:41:21;;;;;;;34.28;16.48;;;;;;;-0.22;72.51;99102.50;4513617;31;33432;-86
2023/12/05 07:43:51;;;;;;;36.38;15.00;;;;;;;-0.18;73.31;99091.69;4511667;31;33370;-85
2023/12/05 07:46:19;;;;;;;57.47;43.05;;;;;;;0.13;72.23;99095.84;4513461;31;34827;-87
2023/12/05 07:48:47;;;;;;;57.67;44.67;;;;;;;-0.38;74.03;99108.44;4511628;31;33725;-85
2023/12/05 07:51:16;;;;;;;57.45;44.05;;;;;;;-0.06;73.47;99097.44;4508354;31;33602;-87
2023/12/05 07:53:46;;;;;;;57.75;44.33;;;;;;;-0.10;73.21;99099.72;4497283;31;34445;-86
2023/12/05 07:56:13;;;;;;;34.95;19.55;;;;;;;-0.14;73.21;99093.59;4513872;31;33877;-86
2023/12/05 07:58:41;;;;;;;62.28;46.70;;;;;;;-0.13;73.28;99091.91;4506025;31;33643;-86
2023/12/05 08:01:08;;;;;;;59.22;44.88;;;;;;;0.03;73.15;99091.94;4510001;31;33531;-87
2023/12/05 08:03:36;;;;;;;33.03;16.67;;;;;;;0.41;72.04;99093.94;4512071;31;33290;-86
2023/12/05 08:06:04;;;;;;;64.97;48.08;;;;;;;0.19;72.95;99093.59;4506249;31;36187;-86
2023/12/05 08:08:34;;;;;;;32.30;15.82;;;;;;;0.02;73.02;99085.09;4510117;31;34036;-88
2023/12/05 08:11:02;;;;;;;42.80;19.40;;;;;;;-0.18;73.76;99091.69;4507393;31;33764;-85
2023/12/05 08:13:30;;;;;;;34.17;17.00;;;;;;;-0.32;74.39;99077.31;4492469;31;33139;-87
2023/12/05 08:15:57;;;;;;;36.83;15.90;;;;;;;-0.35;74.76;99078.00;4513581;31;33542;-86
2023/12/05 08:18:25;;;;;;;40.20;18.62;;;;;;;-0.21;74.61;99080.44;4512691;31;34001;-87
2023/12/05 08:20:53;;;;;;;56.00;40.05;;;;;;;-0.05;74.01;99073.69;4511491;31;34777;-85
2023/12/05 08:23:20;;;;;;;39.17;19.12;;;;;;;-0.14;73.80;99082.53;4484701;31;33584;-87
2023/12/05 08:25:48;;;;;;;43.13;16.95;;;;;;;0.09;73.51;99078.66;4501291;31;33573;-85
2023/12/05 08:28:16;;;;;;;52.97;40.83;;;;;;;-0.14;73.69;99082.53;4509585;31;34051;-87
2023/12/05 08:30:43;;;;;;;54.65;43.00;;;;;;;-0.14;74.04;99085.06;4492600;31;33154;-85
2023/12/05 08:33:11;;;;;;;35.92;17.92;;;;;;;-0.15;74.18;99090.94;4500710;31;33387;-87
2023/12/05 08:35:39;;;;;;;58.65;44.33;;;;;;;-0.13;74.06;99095.34;4512558;31;34008;-86
2023/12/05 08:38:06;;;;;;;56.58;42.60;;;;;;;0.02;73.87;99086.75;4512596;31;35062;-85
2023/12/05 08:40:34;;;;;;;38.05;17.98;;;;;;;0.12;73.35;99087.34;4511548;31;33787;-87
2023/12/05 08:43:03;;;;;;;23.55;12.73;;;;;;;0.17;73.00;99083.34;4511045;31;33232;-85
2023/12/05 08:45:31;;;;;;;30.23;15.85;;;;;;;0.20;72.84;99080.09;4501115;31;34951;-86
2023/12/05 08:47:58;;;;;;;59.17;47.62;;;;;;;0.30;73.19;99082.28;4505191;31;35233;-85
2023/12/05 08:50:27;;;;;;;39.72;18.95;;;;;;;0.35;72.66;99080.00;4513477;31;33883;-86
2023/12/05 08:52:55;;;;;;;55.65;43.85;;;;;;;0.06;73.61;99081.91;4513245;31;33392;-87
2023/12/05 08:55:23;;;;;;;57.20;45.20;;;;;;;0.23;72.93;99077.69;4510404;31;34229;-87
2023/12/05 08:57:50;;;;;;;55.88;41.15;;;;;;;0.15;73.04;99078.94;4508421;31;34903;-87
2023/12/05 09:00:18;;;;;;;56.72;43.22;;;;;;;0.35;72.40;99075.78;4514716;31;33785;-87
2023/12/05 09:02:46;;;;;;;32.92;16.37;;;;;;;0.16;73.10;99086.69;4504821;31;32731;-85
2023/12/05 09:05:13;;;;;;;57.50;45.35;;;;;;;0.11;73.57;99082.12;4498868;31;34021;-88
2023/12/05 09:07:41;;;;;;;41.10;16.45;;;;;;;0.29;72.66;99089.88;4508694;31;33472;-86
2023/12/05 09:10:09;;;;;;;52.15;41.47;;;;;;;0.26;72.97;99087.16;4508219;31;34034;-86
2023/12/05 09:12:36;;;;;;;21.77;13.40;;;;;;;0.09;73.64;99091.41;4509991;31;34433;-87
2023/12/05 09:15:04;;;;;;;34.58;18.37;;;;;;;0.61;72.00;99089.00;4503256;31;34511;-86
2023/12/05 09:17:32;;;;;;;50.35;38.13;;;;;;;0.65;72.10;99086.66;4505746;31;33768;-87
2023/12/05 09:19:59;;;;;;;38.60;16.35;;;;;;;0.45;72.48;99087.31;4504996;31;33149;-85
2023/12/05 09:22:28;;;;;;;52.03;38.92;;;;;;;0.59;71.77;99088.03;4502978;31;33539;-85
2023/12/05 09:24:55;;;;;;;49.15;38.70;;;;;;;0.41;72.60;99086.28;4500847;31;33596;-87
2023/12/05 09:27:23;;;;;;;29.52;14.45;;;;;;;0.86;71.20;99079.19;4505216;31;34094;-86
2023/12/05 09:29:52;;;;;;;30.17;16.80;;;;;;;0.77;70.75;99076.19;4503208;31;33889;-84
2023/12/05 09:32:20;;;;;;;33.47;16.52;;;;;;;0.58;71.51;99079.50;4491451;31;33621;-86
2023/12/05 09:34:47;;;;;;;50.40;40.10;;;;;;;0.94;70.83;99079.56;4484017;31;34634;-85
2023/12/05 09:37:15;;;;;;;54.45;42.88;;;;;;;0.87;70.89;99078.41;4493960;31;34468;-86
2023/12/05 09:39:42;;;;;;;31.35;14.90;;;;;;;0.92;70.98;99066.75;4509208;31;33538;-87
2023/12/05 09:42:13;;;;;;;27.05;15.02;;;;;;;0.67;71.35;99063.75;4495954;31;33874;-88
2023/12/05 09:44:47;;;;;;;51.95;39.08;;;;;;;0.57;71.74;99056.44;4474593;31;34399;-86
2023/12/05 09:47:19;;;;;;;51.03;39.95;;;;;;;0.27;72.93;99060.91;4496991;31;34071;-86
2023/12/05 09:49:46;;;;;;;29.00;14.73;;;;;;;0.59;71.55;99060.84;4494648;31;33825;-87
2023/12/05 09:52:14;;;;;;;50.83;39.28;;;;;;;0.60;71.72;99054.06;4487153;31;33544;-86
2023/12/05 09:54:43;;;;;;;53.78;40.03;;;;;;;0.73;71.91;99056.44;4509084;31;33739;-86
2023/12/05 09:57:13;;;;;;;52.50;41.08;;;;;;;0.95;71.19;99051.59;4499518;31;33567;-87
2023/12/05 09:59:41;;;;;;;35.15;16.27;;;;;;;1.17;70.03;99048.34;4493617;31;34170;-88
2023/12/05 10:02:10;;;;;;;52.75;39.10;;;;;;;1.23;69.99;99041.81;4489426;31;33735;-85
2023/12/05 10:04:44;;;;;;;48.15;36.80;;;;;;;1.08;69.93;99044.50;4498803;31;33969;-84
2023/12/05 10:07:12;;;;;;;27.85;13.68;;;;;;;0.82;70.49;99041.56;4483571;31;34913;-85
2023/12/05 10:09:41;;;;;;;49.47;37.60;;;;;;;0.76;71.11;99022.50;4497769;31;33648;-86
2023/12/05 10:12:11;;;;;;;31.75;16.17;;;;;;;0.57;72.23;99031.84;4497163;31;33534;-84
2023/12/05 10:14:39;;;;;;;32.67;16.30;;;;;;;0.80;71.06;99021.88;4512969;31;33857;-86
2023/12/05 10:17:08;;;;;;;46.55;35.72;;;;;;;1.03;70.88;99017.91;4497631;31;34298;-84
2023/12/05 10:19:35;;;;;;;33.30;17.08;;;;;;;0.65;71.27;99019.47;4497384;31;33847;-85
2023/12/05 10:22:04;;;;;;;46.03;36.63;;;;;;;1.03;70.34;99007.69;4501489;31;33035;-84
2023/12/05 10:24:57;;;;;;;35.90;16.60;;;;;;;0.90;70.84;99012.19;4515544;31;33933;-85
2023/12/05 10:27:26;;;;;;;31.15;16.05;;;;;;;1.00;70.75;99003.28;4512088;31;34158;-87
2023/12/05 10:29:54;;;;;;;29.60;15.95;;;;;;;1.05;70.84;99003.50;4493356;31;33806;-88
2023/12/05 10:32:26;;;;;;;35.22;17.50;;;;;;;0.96;71.34;99004.81;4513996;31;34303;-86
2023/12/05 10:34:56;;;;;;;41.53;17.95;;;;;;;1.51;69.81;98992.88;4509736;31;34805;-88
2023/12/05 10:37:28;;;;;;;48.05;37.50;;;;;;;1.36;69.89;98990.50;4490156;31;34510;-89
2023/12/05 10:40:00;;;;;;;26.27;14.50;;;;;;;1.41;69.26;98983.94;4485688;31;33943;-85
2023/12/05 10:42:29;;;;;;;49.85;38.85;;;;;;;1.17;70.06;98992.19;4491616;31;33466;-84
2023/12/05 10:44:56;;;;;;;47.45;35.08;;;;;;;1.00;70.80;98999.88;4505738;31;33789;-83
2023/12/05 10:47:27;;;;;;;22.87;11.98;;;;;;;1.15;69.74;98995.50;4514147;31;34220;-89
2023/12/05 10:49:56;;;;;;;26.40;12.93;;;;;;;0.95;70.38;98985.22;4512193;31;35341;-88
2023/12/05 10:52:24;;;;;;;32.95;16.80;;;;;;;0.90;70.84;98979.00;4496949;31;34591;-85
2023/12/05 10:54:56;;;;;;;37.50;14.32;;;;;;;1.13;70.66;98974.09;4486865;31;34599;-85
2023/12/05 10:57:30;;;;;;;49.13;37.08;;;;;;;1.17;70.46;98970.88;4497350;31;33820;-85
2023/12/05 11:00:07;;;;;;;29.37;15.65;;;;;;;1.13;70.55;98967.31;4494117;31;33441;-87
2023/12/05 11:02:36;;;;;;;32.83;14.32;;;;;;;1.16;70.01;98964.03;4494651;31;34146;-87
2023/12/05 11:05:04;;;;;;;47.92;36.88;;;;;;;0.99;70.82;98970.06;4487467;31;33901;-85
2023/12/05 11:07:32;;;;;;;36.05;16.37;;;;;;;1.07;71.24;98976.38;4488500;31;33762;-84
2023/12/05 11:10:00;;;;;;;31.75;15.50;;;;;;;1.12;70.35;98977.47;4499137;31;34615;-83
2023/12/05 11:12:28;;;;;;;37.92;19.60;;;;;;;1.24;70.16;98979.72;4507353;31;33504;-84
2023/12/05 11:14:57;;;;;;;41.55;18.90;;;;;;;1.37;69.30;98980.37;4511720;31;33607;-83
2023/12/05 11:17:28;;;;;;;37.03;17.95;;;;;;;1.44;69.61;98977.28;4494437;31;35471;-85
2023/12/05 11:20:21;;;;;;;35.05;16.83;;;;;;;1.26;69.79;98968.78;4497020;31;33782;-86
2023/12/05 11:23:10;;;;;;;36.38;17.90;;;;;;;1.43;69.20;98970.41;4499504;31;33452;-87
2023/12/05 11:25:49;;;;;;;69.05;49.75;;;;;;;1.61;68.83;98974.59;4499483;31;33617;-85